sensor_id;sensor_type;location;lat;lon;timestamp;pressure;altitude;pressure_sealevel;temperature;humidity
59104;BME280;51449;51.676;5.812;2023-02-28T00:02:00;103059.19;;;1.25;61.18
59104;BME280;51449;51.676;5.812;2023-02-28T00:04:22;103066.50;;;1.25;61.18
59104;BME280;51449;51.676;5.812;2023-02-28T00:06:43;103060.44;;;1.23;61.04
59104;BME280;51449;51.676;5.812;2023-02-28T00:11:30;103062.53;;;1.21;61.13
59104;BME280;51449;51.676;5.812;2023-02-28T00:13:52;103059.00;;;1.20;61.14
59104;BME280;51449;51.676;5.812;2023-02-28T00:16:18;103053.56;;;1.20;61.08
59104;BME280;51449;51.676;5.812;2023-02-28T00:18:42;103047.53;;;1.18;61.49
59104;BME280;51449;51.676;5.812;2023-02-28T00:21:04;103049.16;;;1.19;61.66
59104;BME280;51449;51.676;5.812;2023-02-28T00:23:27;103063.81;;;1.18;61.33
59104;BME280;51449;51.676;5.812;2023-02-28T00:25:51;103058.38;;;1.18;61.46
59104;BME280;51449;51.676;5.812;2023-02-28T00:28:13;103050.22;;;1.18;61.65
59104;BME280;51449;51.676;5.812;2023-02-28T00:30:34;103059.00;;;1.20;61.46
59104;BME280;51449;51.676;5.812;2023-02-28T00:32:58;103046.47;;;1.19;60.98
59104;BME280;51449;51.676;5.812;2023-02-28T00:35:20;103046.47;;;1.19;61.32
59104;BME280;51449;51.676;5.812;2023-02-28T00:37:42;103043.75;;;1.19;61.07
59104;BME280;51449;51.676;5.812;2023-02-28T00:40:05;103038.53;;;1.18;61.53
59104;BME280;51449;51.676;5.812;2023-02-28T00:42:28;103038.75;;;1.16;61.26
59104;BME280;51449;51.676;5.812;2023-02-28T00:44:49;103049.84;;;1.15;61.30
59104;BME280;51449;51.676;5.812;2023-02-28T00:47:11;103045.66;;;1.12;61.21
59104;BME280;51449;51.676;5.812;2023-02-28T00:49:33;103046.09;;;1.09;61.19
59104;BME280;51449;51.676;5.812;2023-02-28T00:51:56;103047.34;;;1.06;61.39
59104;BME280;51449;51.676;5.812;2023-02-28T00:54:20;103041.53;;;1.03;61.24
59104;BME280;51449;51.676;5.812;2023-02-28T00:56:42;103049.88;;;1.01;61.22
59104;BME280;51449;51.676;5.812;2023-02-28T00:59:04;103050.09;;;1.00;61.54
59104;BME280;51449;51.676;5.812;2023-02-28T01:01:26;103052.81;;;1.00;61.29
59104;BME280;51449;51.676;5.812;2023-02-28T01:03:48;103057.00;;;0.96;61.36
59104;BME280;51449;51.676;5.812;2023-02-28T01:06:10;103057.66;;;0.91;61.69
59104;BME280;51449;51.676;5.812;2023-02-28T01:08:32;103067.06;;;0.89;61.78
59104;BME280;51449;51.676;5.812;2023-02-28T01:10:54;103059.94;;;0.88;61.40
59104;BME280;51449;51.676;5.812;2023-02-28T01:13:16;103059.94;;;0.88;61.72
59104;BME280;51449;51.676;5.812;2023-02-28T01:15:42;103062.44;;;0.89;62.00
59104;BME280;51449;51.676;5.812;2023-02-28T01:18:07;103064.72;;;0.92;61.72
59104;BME280;51449;51.676;5.812;2023-02-28T01:20:28;103068.06;;;0.94;61.54
59104;BME280;51449;51.676;5.812;2023-02-28T01:22:50;103074.13;;;0.96;61.57
59104;BME280;51449;51.676;5.812;2023-02-28T01:25:12;103064.91;;;0.97;61.44
59104;BME280;51449;51.676;5.812;2023-02-28T01:27:34;103068.25;;;0.99;61.52
59104;BME280;51449;51.676;5.812;2023-02-28T01:29:57;103070.78;;;1.01;61.33
59104;BME280;51449;51.676;5.812;2023-02-28T01:32:18;103071.59;;;1.01;61.38
59104;BME280;51449;51.676;5.812;2023-02-28T01:34:40;103055.31;;;1.01;61.04
59104;BME280;51449;51.676;5.812;2023-02-28T01:37:01;103065.34;;;1.01;61.37
59104;BME280;51449;51.676;5.812;2023-02-28T01:39:25;103054.91;;;0.98;61.81
59104;BME280;51449;51.676;5.812;2023-02-28T01:41:48;103051.97;;;0.99;61.20
59104;BME280;51449;51.676;5.812;2023-02-28T01:47:22;103049.50;;;0.98;61.40
59104;BME280;51449;51.676;5.812;2023-02-28T01:49:47;103054.91;;;0.98;61.91
59104;BME280;51449;51.676;5.812;2023-02-28T01:52:10;103057.63;;;0.98;61.62
59104;BME280;51449;51.676;5.812;2023-02-28T01:54:40;103054.06;;;0.97;61.75
59104;BME280;51449;51.676;5.812;2023-02-28T01:57:05;103042.81;;;0.94;61.70
59104;BME280;51449;51.676;5.812;2023-02-28T01:59:40;103052.41;;;0.90;62.46
59104;BME280;51449;51.676;5.812;2023-02-28T02:02:14;103055.56;;;0.87;62.31
59104;BME280;51449;51.676;5.812;2023-02-28T02:04:46;103053.06;;;0.85;62.25
59104;BME280;51449;51.676;5.812;2023-02-28T02:07:14;103056.00;;;0.83;62.32
59104;BME280;51449;51.676;5.812;2023-02-28T02:09:39;103049.13;;;0.81;62.01
59104;BME280;51449;51.676;5.812;2023-02-28T02:12:11;103045.34;;;0.82;62.39
59104;BME280;51449;51.676;5.812;2023-02-28T02:15:13;103036.38;;;0.81;62.27
59104;BME280;51449;51.676;5.812;2023-02-28T02:17:46;103043.06;;;0.85;62.99
59104;BME280;51449;51.676;5.812;2023-02-28T02:20:38;103048.06;;;0.89;63.02
59104;BME280;51449;51.676;5.812;2023-02-28T02:23:40;103044.06;;;0.91;63.08
59104;BME280;51449;51.676;5.812;2023-02-28T02:26:52;103041.56;;;0.96;62.97
59104;BME280;51449;51.676;5.812;2023-02-28T02:35:54;103035.66;;;1.06;63.49
59104;BME280;51449;51.676;5.812;2023-02-28T02:41:08;103035.22;;;1.16;63.91
59104;BME280;51449;51.676;5.812;2023-02-28T02:43:44;103032.88;;;1.19;63.92
59104;BME280;51449;51.676;5.812;2023-02-28T02:49:00;103037.63;;;1.31;64.30
59104;BME280;51449;51.676;5.812;2023-02-28T02:51:30;103034.28;;;1.35;64.28
59104;BME280;51449;51.676;5.812;2023-02-28T02:54:03;103027.56;;;1.38;64.45
59104;BME280;51449;51.676;5.812;2023-02-28T02:56:30;103037.56;;;1.44;64.61
59104;BME280;51449;51.676;5.812;2023-02-28T02:58:59;103035.25;;;1.47;64.23
59104;BME280;51449;51.676;5.812;2023-02-28T03:01:26;103032.09;;;1.50;64.03
59104;BME280;51449;51.676;5.812;2023-02-28T03:04:13;103032.88;;;1.58;64.05
59104;BME280;51449;51.676;5.812;2023-02-28T03:06:41;103022.03;;;1.58;64.28
59104;BME280;51449;51.676;5.812;2023-02-28T03:09:03;103028.69;;;1.62;64.27
59104;BME280;51449;51.676;5.812;2023-02-28T03:11:25;103038.28;;;1.64;64.53
59104;BME280;51449;51.676;5.812;2023-02-28T03:13:52;103029.94;;;1.66;64.15
59104;BME280;51449;51.676;5.812;2023-02-28T03:16:33;103032.81;;;1.71;63.79
59104;BME280;51449;51.676;5.812;2023-02-28T03:19:34;103025.25;;;1.73;63.95
59104;BME280;51449;51.676;5.812;2023-02-28T03:27:28;103025.22;;;1.80;63.24
59104;BME280;51449;51.676;5.812;2023-02-28T03:30:05;103033.53;;;1.85;63.84
59104;BME280;51449;51.676;5.812;2023-02-28T03:32:48;103031.06;;;1.83;64.02
59104;BME280;51449;51.676;5.812;2023-02-28T03:35:26;103037.94;;;1.86;63.79
59104;BME280;51449;51.676;5.812;2023-02-28T03:38:00;103033.31;;;1.86;63.19
59104;BME280;51449;51.676;5.812;2023-02-28T03:40:30;103039.38;;;1.88;63.63
59104;BME280;51449;51.676;5.812;2023-02-28T03:43:03;103034.78;;;1.89;63.56
59104;BME280;51449;51.676;5.812;2023-02-28T03:45:33;103027.22;;;1.91;63.36
59104;BME280;51449;51.676;5.812;2023-02-28T03:48:17;103038.72;;;1.93;63.11
59104;BME280;51449;51.676;5.812;2023-02-28T03:50:53;103027.22;;;1.91;62.69
59104;BME280;51449;51.676;5.812;2023-02-28T03:53:27;103028.06;;;1.91;62.89
59104;BME280;51449;51.676;5.812;2023-02-28T03:55:57;103038.47;;;1.95;63.03
59104;BME280;51449;51.676;5.812;2023-02-28T03:58:37;103028.44;;;1.95;62.87
59104;BME280;51449;51.676;5.812;2023-02-28T04:01:09;103018.16;;;1.97;62.49
59104;BME280;51449;51.676;5.812;2023-02-28T04:03:41;103022.56;;;1.98;62.88
59104;BME280;51449;51.676;5.812;2023-02-28T04:06:04;103018.78;;;1.99;62.76
59104;BME280;51449;51.676;5.812;2023-02-28T04:08:29;103021.06;;;2.02;62.41
59104;BME280;51449;51.676;5.812;2023-02-28T04:11:01;103021.91;;;2.03;61.94
59104;BME280;51449;51.676;5.812;2023-02-28T04:13:28;103020.03;;;2.03;62.35
59104;BME280;51449;51.676;5.812;2023-02-28T04:15:49;103016.22;;;2.04;62.00
59104;BME280;51449;51.676;5.812;2023-02-28T04:18:11;103012.47;;;2.05;61.75
59104;BME280;51449;51.676;5.812;2023-02-28T04:20:32;103016.41;;;2.09;62.35
59104;BME280;51449;51.676;5.812;2023-02-28T04:22:54;103020.56;;;2.12;62.01
59104;BME280;51449;51.676;5.812;2023-02-28T04:25:16;103020.56;;;2.12;61.89
59104;BME280;51449;51.676;5.812;2023-02-28T04:27:37;103025.16;;;2.11;61.59
59104;BME280;51449;51.676;5.812;2023-02-28T04:29:59;103028.97;;;2.10;61.65
59104;BME280;51449;51.676;5.812;2023-02-28T04:32:21;103029.13;;;2.16;61.89
59104;BME280;51449;51.676;5.812;2023-02-28T04:34:42;103033.72;;;2.15;61.47
59104;BME280;51449;51.676;5.812;2023-02-28T04:37:05;103032.88;;;2.14;61.76
59104;BME280;51449;51.676;5.812;2023-02-28T04:39:36;103036.00;;;2.18;61.30
59104;BME280;51449;51.676;5.812;2023-02-28T04:41:58;103030.34;;;2.20;61.43
59104;BME280;51449;51.676;5.812;2023-02-28T04:44:19;103033.66;;;2.22;61.65
59104;BME280;51449;51.676;5.812;2023-02-28T04:46:42;103033.66;;;2.22;61.60
59104;BME280;51449;51.676;5.812;2023-02-28T04:49:04;103028.44;;;2.20;61.41
59104;BME280;51449;51.676;5.812;2023-02-28T04:51:26;103028.44;;;2.20;61.59
59104;BME280;51449;51.676;5.812;2023-02-28T04:53:49;103031.16;;;2.20;61.82
59104;BME280;51449;51.676;5.812;2023-02-28T04:56:13;103032.22;;;2.19;61.68
59104;BME280;51449;51.676;5.812;2023-02-28T04:58:37;103036.81;;;2.19;62.05
59104;BME280;51449;51.676;5.812;2023-02-28T05:01:31;103043.94;;;2.20;61.60
59104;BME280;51449;51.676;5.812;2023-02-28T05:03:57;103044.16;;;2.18;62.21
59104;BME280;51449;51.676;5.812;2023-02-28T05:06:22;103040.59;;;2.18;61.84
59104;BME280;51449;51.676;5.812;2023-02-28T05:08:47;103041.44;;;2.18;62.04
59104;BME280;51449;51.676;5.812;2023-02-28T05:11:15;103048.78;;;2.18;61.44
59104;BME280;51449;51.676;5.812;2023-02-28T05:13:37;103048.16;;;2.16;61.75
59104;BME280;51449;51.676;5.812;2023-02-28T05:15:59;103050.03;;;2.15;61.79
59104;BME280;51449;51.676;5.812;2023-02-28T05:18:21;103048.78;;;2.18;61.76
59104;BME280;51449;51.676;5.812;2023-02-28T05:20:43;103045.44;;;2.16;61.92
59104;BME280;51449;51.676;5.812;2023-02-28T05:23:04;103044.38;;;2.17;61.60
59104;BME280;51449;51.676;5.812;2023-02-28T05:25:26;103047.69;;;2.19;61.58
59104;BME280;51449;51.676;5.812;2023-02-28T05:27:48;103052.31;;;2.18;61.63
59104;BME280;51449;51.676;5.812;2023-02-28T05:30:10;103049.59;;;2.18;61.66
59104;BME280;51449;51.676;5.812;2023-02-28T05:32:32;103049.81;;;2.17;61.65
59104;BME280;51449;51.676;5.812;2023-02-28T05:34:54;103052.53;;;2.17;61.44
59104;BME280;51449;51.676;5.812;2023-02-28T05:37:16;103057.97;;;2.17;61.93
59104;BME280;51449;51.676;5.812;2023-02-28T05:39:37;103060.69;;;2.17;61.87
59104;BME280;51449;51.676;5.812;2023-02-28T05:41:59;103060.31;;;2.13;61.97
59104;BME280;51449;51.676;5.812;2023-02-28T05:44:21;103054.03;;;2.12;61.55
59104;BME280;51449;51.676;5.812;2023-02-28T05:46:43;103067.63;;;2.12;61.61
59104;BME280;51449;51.676;5.812;2023-02-28T05:49:05;103060.53;;;2.11;61.78
59104;BME280;51449;51.676;5.812;2023-02-28T05:51:27;103059.69;;;2.11;61.69
59104;BME280;51449;51.676;5.812;2023-02-28T05:53:49;103071.41;;;2.11;61.79
59104;BME280;51449;51.676;5.812;2023-02-28T05:56:11;103074.72;;;2.13;61.75
59104;BME280;51449;51.676;5.812;2023-02-28T05:58:33;103067.19;;;2.16;61.83
59104;BME280;51449;51.676;5.812;2023-02-28T06:00:57;103077.00;;;2.17;61.75
59104;BME280;51449;51.676;5.812;2023-02-28T06:03:20;103070.72;;;2.16;61.62
59104;BME280;51449;51.676;5.812;2023-02-28T06:05:41;103069.91;;;2.16;62.37
59104;BME280;51449;51.676;5.812;2023-02-28T06:08:03;103068.84;;;2.17;62.05
59104;BME280;51449;51.676;5.812;2023-02-28T06:10:25;103074.28;;;2.17;61.88
59104;BME280;51449;51.676;5.812;2023-02-28T06:12:46;103078.28;;;2.14;62.09
59104;BME280;51449;51.676;5.812;2023-02-28T06:15:13;103078.94;;;2.09;62.12
59104;BME280;51449;51.676;5.812;2023-02-28T06:17:36;103077.72;;;2.05;62.21
59104;BME280;51449;51.676;5.812;2023-02-28T06:19:57;103081.50;;;2.04;61.76
59104;BME280;51449;51.676;5.812;2023-02-28T06:22:19;103079.00;;;2.03;62.34
59104;BME280;51449;51.676;5.812;2023-02-28T06:24:41;103084.03;;;1.99;62.69
59104;BME280;51449;51.676;5.812;2023-02-28T06:27:02;103085.72;;;2.00;62.62
59104;BME280;51449;51.676;5.812;2023-02-28T06:29:27;103087.00;;;1.98;62.47
59104;BME280;51449;51.676;5.812;2023-02-28T06:31:48;103090.97;;;1.95;62.71
59104;BME280;51449;51.676;5.812;2023-02-28T06:34:10;103083.88;;;1.94;62.50
59104;BME280;51449;51.676;5.812;2023-02-28T06:36:35;103081.75;;;1.96;62.57
59104;BME280;51449;51.676;5.812;2023-02-28T06:38:57;103084.50;;;1.96;62.20
59104;BME280;51449;51.676;5.812;2023-02-28T06:41:19;103079.88;;;1.97;62.33
59104;BME280;51449;51.676;5.812;2023-02-28T06:43:41;103087.00;;;1.98;62.31
59104;BME280;51449;51.676;5.812;2023-02-28T06:46:05;103094.91;;;1.99;62.14
59104;BME280;51449;51.676;5.812;2023-02-28T06:48:28;103091.97;;;2.01;61.72
59104;BME280;51449;51.676;5.812;2023-02-28T06:50:50;103094.69;;;2.01;61.46
59104;BME280;51449;51.676;5.812;2023-02-28T06:53:12;103091.16;;;2.00;62.07
59104;BME280;51449;51.676;5.812;2023-02-28T06:55:34;103106.41;;;2.01;61.87
59104;BME280;51449;51.676;5.812;2023-02-28T06:57:57;103097.81;;;2.04;62.06
59104;BME280;51449;51.676;5.812;2023-02-28T07:00:19;103101.09;;;2.13;61.73
59104;BME280;51449;51.676;5.812;2023-02-28T07:02:41;103098.09;;;2.21;61.51
59104;BME280;51449;51.676;5.812;2023-02-28T07:05:03;103095.53;;;2.26;61.49
59104;BME280;51449;51.676;5.812;2023-02-28T07:07:26;103111.63;;;2.53;60.98
59104;BME280;51449;51.676;5.812;2023-02-28T07:09:48;103101.94;;;2.82;59.94
59104;BME280;51449;51.676;5.812;2023-02-28T07:12:10;103104.53;;;2.95;60.10
59104;BME280;51449;51.676;5.812;2023-02-28T07:14:31;103103.47;;;2.96;59.78
59104;BME280;51449;51.676;5.812;2023-02-28T07:16:53;103092.03;;;2.88;59.98
59104;BME280;51449;51.676;5.812;2023-02-28T07:19:15;103099.66;;;2.79;59.68
59104;BME280;51449;51.676;5.812;2023-02-28T07:21:36;103111.44;;;2.73;60.26
59104;BME280;51449;51.676;5.812;2023-02-28T07:23:59;103112.72;;;2.70;60.28
59104;BME280;51449;51.676;5.812;2023-02-28T07:26:20;103116.31;;;2.71;60.03
59104;BME280;51449;51.676;5.812;2023-02-28T07:28:43;103119.47;;;2.68;59.90
59104;BME280;51449;51.676;5.812;2023-02-28T07:31:07;103115.69;;;2.69;60.41
59104;BME280;51449;51.676;5.812;2023-02-28T07:33:29;103121.75;;;2.71;59.85
59104;BME280;51449;51.676;5.812;2023-02-28T07:35:51;103121.50;;;2.72;59.14
59104;BME280;51449;51.676;5.812;2023-02-28T07:38:13;103117.50;;;2.75;58.95
59104;BME280;51449;51.676;5.812;2023-02-28T07:40:35;103124.19;;;2.79;59.27
59104;BME280;51449;51.676;5.812;2023-02-28T07:42:59;103134.41;;;2.84;58.74
59104;BME280;51449;51.676;5.812;2023-02-28T07:45:22;103133.94;;;2.87;58.46
59104;BME280;51449;51.676;5.812;2023-02-28T07:47:43;103127.00;;;2.91;58.45
59104;BME280;51449;51.676;5.812;2023-02-28T07:50:08;103135.94;;;2.98;57.89
59104;BME280;51449;51.676;5.812;2023-02-28T07:52:32;103129.88;;;2.96;57.26
59104;BME280;51449;51.676;5.812;2023-02-28T07:54:53;103132.59;;;2.96;57.01
59104;BME280;51449;51.676;5.812;2023-02-28T07:57:15;103128.38;;;3.00;57.16
59104;BME280;51449;51.676;5.812;2023-02-28T07:59:37;103130.84;;;3.02;56.78
59104;BME280;51449;51.676;5.812;2023-02-28T08:01:59;103128.28;;;3.07;56.49
59104;BME280;51449;51.676;5.812;2023-02-28T08:04:20;103133.34;;;3.21;56.72
59104;BME280;51449;51.676;5.812;2023-02-28T08:06:42;103137.59;;;3.36;56.43
59104;BME280;51449;51.676;5.812;2023-02-28T08:09:04;103137.50;;;3.42;55.79
59104;BME280;51449;51.676;5.812;2023-02-28T08:11:25;103139.22;;;3.55;55.74
59104;BME280;51449;51.676;5.812;2023-02-28T08:13:47;103140.38;;;3.66;54.45
59104;BME280;51449;51.676;5.812;2023-02-28T08:16:09;103137.31;;;3.74;53.49
59104;BME280;51449;51.676;5.812;2023-02-28T08:18:33;103138.75;;;3.77;53.12
59104;BME280;51449;51.676;5.812;2023-02-28T08:20:55;103136.28;;;3.87;53.69
59104;BME280;51449;51.676;5.812;2023-02-28T08:23:18;103136.34;;;3.99;52.77
59104;BME280;51449;51.676;5.812;2023-02-28T08:25:40;103135.41;;;4.05;51.54
59104;BME280;51449;51.676;5.812;2023-02-28T08:28:01;103131.75;;;4.11;51.04
59104;BME280;51449;51.676;5.812;2023-02-28T08:30:23;103131.06;;;4.16;50.09
59104;BME280;51449;51.676;5.812;2023-02-28T08:32:45;103130.47;;;4.25;50.90
59104;BME280;51449;51.676;5.812;2023-02-28T08:35:07;103125.97;;;4.31;50.11
59104;BME280;51449;51.676;5.812;2023-02-28T08:37:30;103126.47;;;4.40;50.32
59104;BME280;51449;51.676;5.812;2023-02-28T08:39:52;103121.47;;;4.48;50.01
59104;BME280;51449;51.676;5.812;2023-02-28T08:42:16;103129.66;;;4.48;48.43
59104;BME280;51449;51.676;5.812;2023-02-28T08:44:38;103121.63;;;4.54;49.06
59104;BME280;51449;51.676;5.812;2023-02-28T08:47:00;103129.94;;;4.59;47.95
59104;BME280;51449;51.676;5.812;2023-02-28T08:49:21;103135.16;;;4.60;47.95
59104;BME280;51449;51.676;5.812;2023-02-28T08:51:43;103137.16;;;4.65;47.74
59104;BME280;51449;51.676;5.812;2023-02-28T08:54:04;103134.34;;;4.71;47.37
59104;BME280;51449;51.676;5.812;2023-02-28T08:56:27;103127.69;;;4.79;47.78
59104;BME280;51449;51.676;5.812;2023-02-28T08:58:50;103135.28;;;4.89;47.81
59104;BME280;51449;51.676;5.812;2023-02-28T09:01:14;103132.16;;;4.97;48.04
59104;BME280;51449;51.676;5.812;2023-02-28T09:03:41;103130.03;;;4.99;47.11
59104;BME280;51449;51.676;5.812;2023-02-28T09:06:04;103125.16;;;5.01;45.69
59104;BME280;51449;51.676;5.812;2023-02-28T09:08:28;103129.31;;;5.04;45.97
59104;BME280;51449;51.676;5.812;2023-02-28T09:10:51;103132.88;;;5.16;46.58
59104;BME280;51449;51.676;5.812;2023-02-28T09:13:13;103135.00;;;5.26;46.02
59104;BME280;51449;51.676;5.812;2023-02-28T09:15:37;103139.25;;;5.33;45.05
59104;BME280;51449;51.676;5.812;2023-02-28T09:17:59;103133.66;;;5.40;45.68
59104;BME280;51449;51.676;5.812;2023-02-28T09:20:21;103134.75;;;5.39;44.15
59104;BME280;51449;51.676;5.812;2023-02-28T09:22:42;103129.00;;;5.41;44.31
59104;BME280;51449;51.676;5.812;2023-02-28T09:25:04;103127.78;;;5.48;44.62
59104;BME280;51449;51.676;5.812;2023-02-28T09:27:26;103129.66;;;5.60;44.09
59104;BME280;51449;51.676;5.812;2023-02-28T09:29:48;103128.72;;;5.66;43.61
59104;BME280;51449;51.676;5.812;2023-02-28T09:32:09;103133.69;;;5.69;42.96
59104;BME280;51449;51.676;5.812;2023-02-28T09:34:31;103124.41;;;5.70;42.38
59104;BME280;51449;51.676;5.812;2023-02-28T09:36:53;103125.22;;;5.70;41.28
59104;BME280;51449;51.676;5.812;2023-02-28T09:39:15;103123.66;;;5.74;42.37
59104;BME280;51449;51.676;5.812;2023-02-28T09:41:40;103122.44;;;5.82;42.62
59104;BME280;51449;51.676;5.812;2023-02-28T09:44:15;103130.66;;;5.82;41.19
59104;BME280;51449;51.676;5.812;2023-02-28T09:46:50;103123.84;;;5.85;41.28
59104;BME280;51449;51.676;5.812;2023-02-28T09:49:17;103121.47;;;5.88;41.49
59104;BME280;51449;51.676;5.812;2023-02-28T09:51:50;103123.00;;;5.96;41.96
59104;BME280;51449;51.676;5.812;2023-02-28T09:54:20;103114.88;;;6.01;40.21
59104;BME280;51449;51.676;5.812;2023-02-28T09:56:48;103117.84;;;5.99;38.99
59104;BME280;51449;51.676;5.812;2023-02-28T10:05:09;103112.09;;;6.30;38.79
59104;BME280;51449;51.676;5.812;2023-02-28T10:10:27;103110.34;;;6.40;38.88
59104;BME280;51449;51.676;5.812;2023-02-28T10:12:56;103107.69;;;6.46;38.25
59104;BME280;51449;51.676;5.812;2023-02-28T10:15:23;103106.69;;;6.52;38.76
59104;BME280;51449;51.676;5.812;2023-02-28T10:17:54;103099.97;;;6.59;39.23
59104;BME280;51449;51.676;5.812;2023-02-28T10:20:32;103108.78;;;6.61;37.48
59104;BME280;51449;51.676;5.812;2023-02-28T10:23:20;103106.63;;;6.63;37.76
59104;BME280;51449;51.676;5.812;2023-02-28T10:25:59;103101.44;;;6.67;37.89
59104;BME280;51449;51.676;5.812;2023-02-28T10:28:33;103097.13;;;6.71;38.13
59104;BME280;51449;51.676;5.812;2023-02-28T10:30:55;103096.69;;;6.79;37.49
59104;BME280;51449;51.676;5.812;2023-02-28T10:33:24;103105.91;;;6.90;37.70
59104;BME280;51449;51.676;5.812;2023-02-28T10:35:55;103099.66;;;6.95;37.23
59104;BME280;51449;51.676;5.812;2023-02-28T10:38:32;103103.31;;;7.00;37.58
59104;BME280;51449;51.676;5.812;2023-02-28T10:41:10;103100.63;;;7.05;36.74
59104;BME280;51449;51.676;5.812;2023-02-28T10:43:34;103098.94;;;7.04;36.33
59104;BME280;51449;51.676;5.812;2023-02-28T10:48:29;103086.81;;;7.17;36.94
59104;BME280;51449;51.676;5.812;2023-02-28T10:50:54;103086.59;;;7.24;36.46
59104;BME280;51449;51.676;5.812;2023-02-28T10:56:00;103085.81;;;7.28;35.79
59104;BME280;51449;51.676;5.812;2023-02-28T10:58:24;103072.41;;;7.27;35.36
59104;BME280;51449;51.676;5.812;2023-02-28T11:00:47;103081.69;;;7.26;35.71
59104;BME280;51449;51.676;5.812;2023-02-28T11:03:24;103085.34;;;7.32;35.50
59104;BME280;51449;51.676;5.812;2023-02-28T11:05:50;103082.59;;;7.32;35.90
59104;BME280;51449;51.676;5.812;2023-02-28T11:08:15;103087.28;;;7.36;35.65
59104;BME280;51449;51.676;5.812;2023-02-28T11:10:38;103075.50;;;7.36;35.56
59104;BME280;51449;51.676;5.812;2023-02-28T11:13:01;103080.22;;;7.40;35.59
59104;BME280;51449;51.676;5.812;2023-02-28T11:15:29;103068.72;;;7.43;35.33
59104;BME280;51449;51.676;5.812;2023-02-28T11:18:24;103075.06;;;7.44;35.76
59104;BME280;51449;51.676;5.812;2023-02-28T11:20:52;103072.09;;;7.50;36.42
59104;BME280;51449;51.676;5.812;2023-02-28T11:23:18;103066.38;;;7.52;35.77
59104;BME280;51449;51.676;5.812;2023-02-28T11:25:47;103069.16;;;7.57;36.00
59104;BME280;51449;51.676;5.812;2023-02-28T11:28:34;103062.06;;;7.61;36.44
59104;BME280;51449;51.676;5.812;2023-02-28T11:33:53;103066.16;;;7.59;35.54
59104;BME280;51449;51.676;5.812;2023-02-28T11:36:29;103052.66;;;7.52;35.43
59104;BME280;51449;51.676;5.812;2023-02-28T11:38:55;103059.78;;;7.53;35.93
59104;BME280;51449;51.676;5.812;2023-02-28T11:47:36;103052.13;;;7.55;36.00
59104;BME280;51449;51.676;5.812;2023-02-28T11:50:18;103049.44;;;7.60;35.48
59104;BME280;51449;51.676;5.812;2023-02-28T11:53:06;103047.22;;;7.57;35.10
59104;BME280;51449;51.676;5.812;2023-02-28T11:55:56;103059.00;;;7.58;36.11
59104;BME280;51449;51.676;5.812;2023-02-28T11:58:38;103049.91;;;7.52;35.24
59104;BME280;51449;51.676;5.812;2023-02-28T12:10:23;103038.16;;;7.57;35.82
59104;BME280;51449;51.676;5.812;2023-02-28T12:18:47;103029.34;;;7.82;35.14
59104;BME280;51449;51.676;5.812;2023-02-28T12:27:19;103015.63;;;7.82;34.66
59104;BME280;51449;51.676;5.812;2023-02-28T12:35:05;103016.78;;;7.91;35.42
59104;BME280;51449;51.676;5.812;2023-02-28T12:37:41;103009.97;;;7.93;34.89
59104;BME280;51449;51.676;5.812;2023-02-28T12:40:15;103001.16;;;7.91;35.01
59104;BME280;51449;51.676;5.812;2023-02-28T12:43:00;102994.63;;;7.98;35.80
59104;BME280;51449;51.676;5.812;2023-02-28T12:45:49;102995.47;;;8.03;35.49
59104;BME280;51449;51.676;5.812;2023-02-28T12:48:22;103003.16;;;8.01;34.71
59104;BME280;51449;51.676;5.812;2023-02-28T12:50:49;102997.91;;;8.00;34.93
59104;BME280;51449;51.676;5.812;2023-02-28T12:56:18;102996.34;;;8.09;34.91
59104;BME280;51449;51.676;5.812;2023-02-28T12:58:56;102990.25;;;8.02;33.96
59104;BME280;51449;51.676;5.812;2023-02-28T13:04:26;102987.22;;;7.98;34.47
59104;BME280;51449;51.676;5.812;2023-02-28T13:10:42;102969.06;;;7.97;34.19
59104;BME280;51449;51.676;5.812;2023-02-28T13:13:15;102969.34;;;7.96;34.26
59104;BME280;51449;51.676;5.812;2023-02-28T13:15:39;102971.81;;;7.97;33.98
59104;BME280;51449;51.676;5.812;2023-02-28T13:18:38;102965.81;;;8.00;34.45
59104;BME280;51449;51.676;5.812;2023-02-28T13:21:06;102966.66;;;8.01;33.97
59104;BME280;51449;51.676;5.812;2023-02-28T13:26:08;102957.31;;;8.02;34.29
59104;BME280;51449;51.676;5.812;2023-02-28T13:31:10;102952.38;;;8.04;34.17
59104;BME280;51449;51.676;5.812;2023-02-28T13:33:36;102959.25;;;8.06;34.74
59104;BME280;51449;51.676;5.812;2023-02-28T13:51:48;102951.78;;;7.97;34.90
59104;BME280;51449;51.676;5.812;2023-02-28T13:54:19;102952.06;;;7.95;35.51
59104;BME280;51449;51.676;5.812;2023-02-28T13:57:35;102949.84;;;7.97;35.85
59104;BME280;51449;51.676;5.812;2023-02-28T14:03:24;102949.41;;;8.10;34.83
59104;BME280;51449;51.676;5.812;2023-02-28T14:06:36;102951.34;;;8.10;34.52
59104;BME280;51449;51.676;5.812;2023-02-28T14:11:42;102942.72;;;7.96;34.79
59104;BME280;51449;51.676;5.812;2023-02-28T14:14:07;102942.69;;;7.91;34.25
59104;BME280;51449;51.676;5.812;2023-02-28T14:16:40;102939.41;;;7.94;35.20
59104;BME280;51449;51.676;5.812;2023-02-28T14:19:12;102932.03;;;8.00;34.76
59104;BME280;51449;51.676;5.812;2023-02-28T14:29:56;102924.69;;;8.10;35.02
59104;BME280;51449;51.676;5.812;2023-02-28T14:32:53;102930.22;;;8.15;35.13
59104;BME280;51449;51.676;5.812;2023-02-28T14:37:47;102927.44;;;8.10;34.85
59104;BME280;51449;51.676;5.812;2023-02-28T14:40:15;102939.25;;;8.11;35.05
59104;BME280;51449;51.676;5.812;2023-02-28T14:42:47;102931.56;;;8.08;35.11
59104;BME280;51449;51.676;5.812;2023-02-28T14:45:20;102932.13;;;8.10;34.81
59104;BME280;51449;51.676;5.812;2023-02-28T14:47:42;102931.50;;;7.98;34.86
59104;BME280;51449;51.676;5.812;2023-02-28T14:50:04;102929.03;;;8.01;35.37
59104;BME280;51449;51.676;5.812;2023-02-28T14:52:28;102929.25;;;7.94;34.66
59104;BME280;51449;51.676;5.812;2023-02-28T14:54:54;102928.16;;;7.90;35.47
59104;BME280;51449;51.676;5.812;2023-02-28T14:57:29;102925.69;;;7.94;35.47
59104;BME280;51449;51.676;5.812;2023-02-28T15:00:20;102924.31;;;7.97;34.71